createdAt,value
2024-04-30T00:01:56.308Z,16.48
2024-04-30T00:04:25.157Z,16.47
2024-04-30T00:06:55.050Z,16.43
2024-04-30T00:09:22.782Z,16.43
2024-04-30T00:11:50.686Z,16.40
2024-04-30T00:14:18.518Z,16.39
2024-04-30T00:16:46.317Z,16.38
2024-04-30T00:19:14.202Z,16.39
2024-04-30T00:21:43.225Z,16.39
2024-04-30T00:24:12.342Z,16.34
2024-04-30T00:26:40.244Z,16.33
2024-04-30T00:29:08.112Z,16.29
2024-04-30T00:31:35.918Z,16.25
2024-04-30T00:34:03.668Z,16.25
2024-04-30T00:36:31.425Z,16.25
2024-04-30T00:38:59.135Z,16.28
2024-04-30T00:41:26.850Z,16.25
2024-04-30T00:43:54.516Z,16.23
2024-04-30T00:46:22.722Z,16.18
2024-04-30T00:48:50.629Z,16.17
2024-04-30T00:51:18.499Z,16.19
2024-04-30T00:53:46.213Z,16.20
2024-04-30T00:56:14.161Z,16.16
2024-04-30T00:58:42.456Z,16.15
2024-04-30T01:01:10.414Z,16.12
2024-04-30T01:03:38.253Z,16.13
2024-04-30T01:06:06.029Z,16.11
2024-04-30T01:08:33.771Z,16.10
2024-04-30T01:11:01.563Z,16.09
2024-04-30T01:13:30.871Z,16.07
2024-04-30T01:15:59.290Z,16.07
2024-04-30T01:18:27.517Z,16.06
2024-04-30T01:20:55.258Z,16.04
2024-04-30T01:23:23.055Z,16.04
2024-04-30T01:25:50.890Z,16.04
2024-04-30T01:28:18.808Z,15.98
2024-04-30T01:30:49.164Z,15.93
2024-04-30T01:33:17.452Z,15.89
2024-04-30T01:35:45.612Z,15.85
2024-04-30T01:38:13.379Z,15.84
2024-04-30T01:40:41.205Z,15.83
2024-04-30T01:43:09.135Z,15.83
2024-04-30T01:45:36.998Z,15.78
2024-04-30T01:48:05.329Z,15.75
2024-04-30T01:50:33.060Z,15.72
2024-04-30T01:53:00.807Z,15.67
2024-04-30T01:55:28.556Z,15.65
2024-04-30T01:57:56.267Z,15.63
2024-04-30T02:00:23.949Z,15.60
2024-04-30T02:02:51.625Z,15.57
2024-04-30T02:05:24.913Z,15.55
2024-04-30T02:07:53.677Z,15.54
2024-04-30T02:10:21.512Z,15.51
2024-04-30T02:12:49.301Z,15.50
2024-04-30T02:15:16.982Z,15.48
2024-04-30T02:17:44.806Z,15.48
2024-04-30T02:20:12.572Z,15.42
2024-04-30T02:22:40.302Z,15.37
2024-04-30T02:25:08.130Z,15.36
2024-04-30T02:27:35.828Z,15.34
2024-04-30T02:30:04.040Z,15.34
2024-04-30T02:32:54.738Z,15.33
2024-04-30T02:35:22.815Z,15.31
2024-04-30T02:37:50.811Z,15.22
2024-04-30T02:40:18.509Z,15.22
2024-04-30T02:42:46.319Z,15.22
2024-04-30T02:45:14.009Z,15.26
2024-04-30T02:47:41.950Z,15.28
2024-04-30T02:50:09.714Z,15.30
2024-04-30T02:52:37.412Z,15.26
2024-04-30T02:55:05.609Z,15.26
2024-04-30T02:57:33.271Z,15.27
2024-04-30T03:00:01.013Z,15.28
2024-04-30T03:02:28.766Z,15.25
2024-04-30T03:04:56.558Z,15.25
2024-04-30T03:07:24.515Z,15.24
2024-04-30T03:09:52.239Z,15.22
2024-04-30T03:12:19.981Z,15.18
2024-04-30T03:14:47.640Z,15.18
2024-04-30T03:17:15.445Z,15.16
2024-04-30T03:19:43.277Z,15.10
2024-04-30T03:22:11.012Z,15.09
2024-04-30T03:24:38.704Z,15.04
2024-04-30T03:27:06.483Z,15.02
2024-04-30T03:29:34.142Z,14.99
2024-04-30T03:32:01.996Z,14.94
2024-04-30T03:34:29.972Z,14.90
2024-04-30T03:36:57.787Z,14.89
2024-04-30T03:39:25.657Z,14.84
2024-04-30T03:41:53.479Z,14.79
2024-04-30T03:44:21.149Z,14.75
2024-04-30T03:46:48.918Z,14.71
2024-04-30T03:49:16.649Z,14.67
2024-04-30T03:51:44.431Z,14.65
2024-04-30T03:54:12.111Z,14.62
2024-04-30T03:56:39.868Z,14.59
2024-04-30T03:59:08.668Z,14.55
2024-04-30T04:01:36.423Z,14.54
2024-04-30T04:04:04.404Z,14.51
2024-04-30T04:06:32.121Z,14.45
2024-04-30T04:09:01.463Z,14.41
2024-04-30T04:11:47.656Z,14.40
2024-04-30T04:14:33.733Z,14.39
2024-04-30T04:17:01.577Z,14.40
2024-04-30T04:19:31.258Z,14.38
2024-04-30T04:21:59.009Z,14.38
2024-04-30T04:24:26.967Z,14.42
2024-04-30T04:26:54.907Z,14.41
2024-04-30T04:29:22.568Z,14.44
2024-04-30T04:31:50.282Z,14.44
2024-04-30T04:34:18.145Z,14.44
2024-04-30T04:36:45.933Z,14.41
2024-04-30T04:39:14.122Z,14.39
2024-04-30T04:41:41.967Z,14.40
2024-04-30T04:44:09.673Z,14.41
2024-04-30T04:46:37.606Z,14.44
2024-04-30T04:49:08.043Z,14.43
2024-04-30T04:51:36.031Z,14.43
2024-04-30T04:54:03.831Z,14.48
2024-04-30T04:56:31.631Z,14.47
2024-04-30T04:58:59.368Z,14.49
2024-04-30T05:01:27.133Z,14.51
2024-04-30T05:03:56.096Z,14.53
2024-04-30T05:06:23.823Z,14.55
2024-04-30T05:08:51.521Z,14.60
2024-04-30T05:11:19.296Z,14.61
2024-04-30T05:13:46.998Z,14.57
2024-04-30T05:16:14.832Z,14.53
2024-04-30T05:18:42.576Z,14.46
2024-04-30T05:21:10.576Z,14.48
2024-04-30T05:23:38.465Z,14.51
2024-04-30T05:26:06.905Z,14.55
2024-04-30T05:28:34.673Z,14.62
2024-04-30T05:31:02.443Z,14.71
2024-04-30T05:33:31.061Z,14.78
2024-04-30T05:35:58.852Z,14.83
2024-04-30T05:38:26.558Z,14.76
2024-04-30T05:40:54.282Z,14.77
2024-04-30T05:43:21.982Z,14.84
2024-04-30T05:45:49.741Z,14.87
2024-04-30T05:48:17.415Z,14.85
2024-04-30T05:50:45.103Z,14.89
2024-04-30T05:53:13.217Z,14.69
2024-04-30T05:55:41.107Z,14.68
2024-04-30T05:58:08.878Z,14.73
2024-04-30T06:00:36.654Z,14.69
2024-04-30T06:03:04.780Z,14.55
2024-04-30T06:05:32.612Z,14.55
2024-04-30T06:08:00.672Z,14.70
2024-04-30T06:10:28.356Z,14.83
2024-04-30T06:12:56.137Z,14.51
2024-04-30T06:15:23.923Z,14.47
2024-04-30T06:17:51.766Z,14.46
2024-04-30T06:20:19.499Z,14.55
2024-04-30T06:22:47.190Z,14.59
2024-04-30T06:25:14.973Z,14.68
2024-04-30T06:27:43.680Z,14.76
2024-04-30T06:30:11.776Z,14.89
2024-04-30T06:32:39.679Z,14.84
2024-04-30T06:35:07.556Z,14.95
2024-04-30T06:37:35.273Z,14.82
2024-04-30T06:40:03.123Z,14.73
2024-04-30T06:42:31.074Z,14.74
2024-04-30T06:44:58.909Z,14.98
2024-04-30T06:47:26.695Z,15.07
2024-04-30T06:49:54.479Z,15.14
2024-04-30T06:52:22.624Z,15.25
2024-04-30T06:54:50.334Z,15.25
2024-04-30T06:57:18.055Z,15.29
2024-04-30T06:59:45.800Z,15.34
2024-04-30T07:02:13.587Z,15.22
2024-04-30T07:04:41.452Z,15.40
2024-04-30T07:07:09.528Z,15.38
2024-04-30T07:09:37.219Z,15.44
2024-04-30T07:12:05.451Z,15.60
2024-04-30T07:14:34.981Z,15.65
2024-04-30T07:17:07.969Z,15.79
2024-04-30T07:19:37.038Z,15.83
2024-04-30T07:22:05.446Z,15.82
2024-04-30T07:24:33.216Z,15.89
2024-04-30T07:27:00.911Z,15.97
2024-04-30T07:29:28.808Z,16.00
2024-04-30T07:31:56.560Z,16.04
2024-04-30T07:34:24.388Z,16.17
2024-04-30T07:36:52.314Z,16.23
2024-04-30T07:39:20.015Z,16.17
2024-04-30T07:41:47.780Z,16.14
2024-04-30T07:44:15.531Z,16.22
2024-04-30T07:46:43.260Z,16.35
2024-04-30T07:49:11.237Z,16.44
2024-04-30T07:51:38.995Z,16.47
2024-04-30T07:54:06.807Z,16.50
2024-04-30T07:56:34.475Z,16.60
2024-04-30T07:59:02.158Z,16.67
2024-04-30T08:01:29.930Z,16.74
2024-04-30T08:03:57.689Z,16.76
2024-04-30T08:06:25.450Z,16.79
2024-04-30T08:08:53.165Z,16.82
2024-04-30T08:11:21.342Z,16.88
2024-04-30T08:13:49.169Z,16.92
2024-04-30T08:16:17.113Z,17.00
2024-04-30T08:18:44.853Z,17.07
2024-04-30T08:21:12.590Z,17.15
2024-04-30T08:23:40.397Z,17.20
2024-04-30T08:26:08.166Z,17.23
2024-04-30T08:28:36.152Z,17.30
2024-04-30T08:31:04.992Z,17.40
2024-04-30T08:33:33.154Z,17.49
2024-04-30T08:36:00.897Z,17.58
2024-04-30T08:38:28.605Z,17.66
2024-04-30T08:40:57.733Z,17.75
2024-04-30T08:43:30.233Z,17.86
2024-04-30T08:46:00.223Z,17.93
2024-04-30T08:48:28.665Z,17.94
2024-04-30T08:50:57.906Z,18.01
2024-04-30T08:53:26.638Z,18.06
2024-04-30T08:55:55.327Z,18.03
2024-04-30T08:58:23.477Z,17.99
2024-04-30T09:00:53.833Z,18.06
2024-04-30T09:03:26.446Z,18.15
2024-04-30T09:05:55.030Z,18.20
2024-04-30T09:08:23.707Z,18.21
2024-04-30T09:10:51.848Z,18.32
2024-04-30T09:13:22.223Z,18.34
2024-04-30T09:16:01.211Z,18.37
2024-04-30T09:18:29.126Z,18.48
2024-04-30T09:21:04.407Z,18.59
2024-04-30T09:23:39.093Z,18.63
2024-04-30T09:26:10.853Z,18.69
2024-04-30T09:28:38.805Z,18.76
2024-04-30T09:31:10.778Z,18.82
2024-04-30T09:33:38.968Z,18.90
2024-04-30T09:36:09.500Z,18.92
2024-04-30T09:38:39.775Z,19.00
2024-04-30T09:41:14.027Z,19.05
2024-04-30T09:43:42.125Z,19.11
2024-04-30T09:46:10.127Z,19.17
2024-04-30T09:48:39.956Z,19.26
2024-04-30T09:51:13.212Z,19.33
2024-04-30T09:53:41.875Z,19.34
2024-04-30T09:56:11.318Z,19.50
2024-04-30T09:58:40.405Z,19.62
2024-04-30T10:01:13.704Z,19.72
2024-04-30T10:03:43.552Z,19.81
2024-04-30T10:06:14.040Z,19.84
2024-04-30T10:08:44.195Z,19.88
2024-04-30T10:11:13.625Z,19.95
2024-04-30T10:13:51.921Z,19.98
2024-04-30T10:16:22.039Z,20.00
2024-04-30T10:19:01.947Z,20.01
2024-04-30T10:21:35.156Z,20.11
2024-04-30T10:24:24.443Z,20.08
2024-04-30T10:26:52.585Z,20.18
2024-04-30T10:29:20.424Z,20.29
2024-04-30T10:31:49.186Z,20.34
2024-04-30T10:34:18.165Z,20.46
2024-04-30T10:37:11.498Z,20.60
2024-04-30T10:39:39.318Z,20.74
2024-04-30T10:42:06.977Z,20.76
2024-04-30T10:44:45.004Z,20.85
2024-04-30T10:47:13.020Z,20.95
2024-04-30T10:49:40.748Z,20.96
2024-04-30T10:52:08.528Z,21.08
2024-04-30T10:54:36.774Z,21.17
2024-04-30T10:57:04.992Z,21.21
2024-04-30T10:59:32.681Z,21.10
2024-04-30T11:02:03.496Z,21.20
2024-04-30T11:04:32.425Z,21.30
2024-04-30T11:07:00.823Z,21.41
2024-04-30T11:09:28.876Z,21.49
2024-04-30T11:12:02.503Z,21.48
2024-04-30T11:14:41.214Z,21.52
2024-04-30T11:17:11.737Z,21.62
2024-04-30T11:19:42.349Z,21.74
2024-04-30T11:22:10.507Z,21.83
2024-04-30T11:24:38.324Z,21.90
2024-04-30T11:27:06.163Z,22.06
2024-04-30T11:29:38.441Z,22.20
2024-04-30T11:32:10.007Z,22.33
2024-04-30T11:34:37.973Z,22.46
2024-04-30T11:37:05.950Z,22.59
2024-04-30T11:39:34.282Z,22.71
2024-04-30T11:42:13.476Z,22.81
2024-04-30T11:44:49.064Z,22.89
2024-04-30T11:47:17.336Z,22.97
2024-04-30T11:49:45.212Z,23.08
2024-04-30T11:52:13.111Z,23.18
2024-04-30T11:54:41.011Z,23.21
2024-04-30T11:57:08.725Z,23.26
2024-04-30T11:59:36.698Z,23.35
2024-04-30T12:02:04.654Z,23.44
2024-04-30T12:04:32.564Z,23.47
2024-04-30T12:07:00.382Z,23.56
2024-04-30T12:09:34.390Z,23.65
2024-04-30T12:12:04.144Z,23.76
2024-04-30T12:14:31.843Z,23.85
2024-04-30T12:16:59.877Z,23.93
2024-04-30T12:19:27.600Z,24.01
2024-04-30T12:21:55.262Z,24.06
2024-04-30T12:24:23.207Z,24.13
2024-04-30T12:26:50.882Z,24.15
2024-04-30T12:29:22.357Z,24.29
2024-04-30T12:31:50.268Z,24.38
2024-04-30T12:34:18.439Z,24.47
2024-04-30T12:36:46.180Z,24.59
2024-04-30T12:39:14.404Z,24.71
2024-04-30T12:41:42.385Z,24.84
2024-04-30T12:44:10.462Z,24.93
2024-04-30T12:46:38.378Z,25.04
2024-04-30T12:49:06.476Z,25.13
2024-04-30T12:51:34.259Z,25.15
2024-04-30T12:54:02.181Z,25.14
2024-04-30T12:56:29.929Z,25.22
2024-04-30T12:58:57.624Z,25.36
2024-04-30T13:01:26.392Z,25.52
2024-04-30T13:03:54.412Z,25.70
2024-04-30T13:06:22.297Z,25.88
2024-04-30T13:08:50.217Z,25.99
2024-04-30T13:11:18.056Z,26.11
2024-04-30T13:13:46.103Z,26.23
2024-04-30T13:16:13.920Z,26.30
2024-04-30T13:18:41.747Z,26.42
2024-04-30T13:21:09.526Z,26.56
2024-04-30T13:23:37.772Z,26.55
2024-04-30T13:26:05.639Z,26.57
2024-04-30T13:28:36.207Z,26.64
2024-04-30T13:31:04.066Z,26.71
2024-04-30T13:33:31.963Z,26.76
2024-04-30T13:35:59.998Z,26.78
2024-04-30T13:38:27.901Z,26.84
2024-04-30T13:40:55.753Z,26.96
2024-04-30T13:43:24.692Z,26.92
2024-04-30T13:45:53.354Z,26.97
2024-04-30T13:48:23.184Z,27.10
2024-04-30T13:50:50.911Z,27.25
2024-04-30T13:53:18.644Z,27.24
2024-04-30T13:55:46.584Z,27.35
2024-04-30T13:58:14.381Z,27.43
2024-04-30T14:00:42.057Z,27.61
2024-04-30T14:03:10.040Z,27.68
2024-04-30T14:05:38.855Z,27.77
2024-04-30T14:08:07.093Z,27.85
2024-04-30T14:10:35.927Z,28.04
2024-04-30T14:13:05.576Z,28.17
2024-04-30T14:15:33.742Z,28.32
2024-04-30T14:18:02.513Z,28.44
2024-04-30T14:20:30.250Z,28.52
2024-04-30T14:22:57.949Z,28.62
2024-04-30T14:25:25.911Z,28.73
2024-04-30T14:27:53.708Z,28.79
2024-04-30T14:30:21.530Z,28.95
2024-04-30T14:32:49.345Z,29.10
2024-04-30T14:35:17.346Z,29.22
2024-04-30T14:37:45.148Z,29.26
2024-04-30T14:40:13.174Z,29.38
2024-04-30T14:42:40.862Z,29.52
2024-04-30T14:45:08.619Z,29.58
2024-04-30T14:47:36.726Z,29.70
2024-04-30T14:50:06.004Z,29.74
2024-04-30T14:52:33.993Z,29.84
2024-04-30T14:55:01.775Z,29.96
2024-04-30T14:57:29.498Z,30.04
2024-04-30T14:59:57.150Z,30.13
2024-04-30T15:02:25.035Z,30.12
2024-04-30T15:04:52.725Z,30.06
2024-04-30T15:07:20.880Z,30.02
2024-04-30T15:09:55.867Z,29.91
2024-04-30T15:12:23.612Z,29.96
2024-04-30T15:14:53.054Z,29.97
2024-04-30T15:17:22.500Z,29.87
2024-04-30T15:19:50.448Z,29.78
2024-04-30T15:22:18.179Z,29.65
2024-04-30T15:24:45.925Z,29.50
2024-04-30T15:27:14.598Z,29.50
2024-04-30T15:29:42.355Z,29.61
2024-04-30T15:32:10.123Z,29.73
2024-04-30T15:34:39.680Z,29.87
2024-04-30T15:37:08.028Z,29.98
2024-04-30T15:39:35.753Z,29.99
2024-04-30T15:42:03.951Z,30.02
2024-04-30T15:44:31.717Z,30.00
2024-04-30T15:46:59.469Z,30.01
2024-04-30T15:49:27.182Z,30.01
2024-04-30T15:51:54.872Z,30.00
2024-04-30T15:54:23.198Z,29.98
2024-04-30T15:56:58.229Z,29.96
2024-04-30T15:59:33.403Z,29.97
2024-04-30T16:02:01.308Z,29.88
2024-04-30T16:04:29.088Z,29.86
2024-04-30T16:06:56.825Z,29.80
2024-04-30T16:09:24.761Z,29.69
2024-04-30T16:11:52.524Z,29.60
2024-04-30T16:14:20.328Z,29.39
2024-04-30T16:16:48.392Z,29.23
2024-04-30T16:19:16.918Z,29.18
2024-04-30T16:21:45.354Z,29.11
2024-04-30T16:24:13.218Z,29.04
2024-04-30T16:26:42.129Z,28.95
2024-04-30T16:29:10.084Z,28.89
2024-04-30T16:31:38.088Z,28.78
2024-04-30T16:34:06.958Z,28.66
2024-04-30T16:36:34.837Z,28.55
2024-04-30T16:39:02.645Z,28.44
2024-04-30T16:41:30.361Z,28.34
2024-04-30T16:43:58.218Z,28.26
2024-04-30T16:46:26.120Z,28.21
2024-04-30T16:48:54.587Z,28.13
2024-04-30T16:51:22.636Z,28.08
2024-04-30T16:53:50.411Z,28.04
2024-04-30T16:56:18.843Z,27.98
2024-04-30T16:58:50.903Z,27.83
2024-04-30T17:01:18.853Z,27.72
2024-04-30T17:03:46.989Z,27.60
2024-04-30T17:06:15.691Z,27.48
2024-04-30T17:08:43.660Z,27.39
2024-04-30T17:11:12.138Z,27.36
2024-04-30T17:13:43.620Z,27.33
2024-04-30T17:16:23.521Z,27.29
2024-04-30T17:18:51.818Z,27.26
2024-04-30T17:21:22.628Z,27.20
2024-04-30T17:23:50.627Z,27.14
2024-04-30T17:26:26.482Z,27.09
2024-04-30T17:28:55.347Z,27.01
2024-04-30T17:31:23.339Z,26.92
2024-04-30T17:33:57.046Z,26.84
2024-04-30T17:36:25.081Z,26.76
2024-04-30T17:38:52.797Z,26.66
2024-04-30T17:41:27.779Z,26.58
2024-04-30T17:43:55.641Z,26.50
2024-04-30T17:46:26.789Z,26.43
2024-04-30T17:48:56.746Z,26.37
2024-04-30T17:51:25.769Z,26.30
2024-04-30T17:53:54.200Z,26.22
2024-04-30T17:56:22.130Z,26.19
2024-04-30T17:58:49.913Z,26.16
2024-04-30T18:01:19.146Z,26.10
2024-04-30T18:03:55.340Z,25.98
2024-04-30T18:06:23.552Z,25.88
2024-04-30T18:08:57.807Z,25.80
2024-04-30T18:11:27.271Z,25.77
2024-04-30T18:13:56.442Z,25.71
2024-04-30T18:16:25.529Z,25.55
2024-04-30T18:18:53.627Z,25.42
2024-04-30T18:21:24.652Z,25.36
2024-04-30T18:23:52.362Z,25.35
2024-04-30T18:26:20.078Z,25.31
2024-04-30T18:28:56.394Z,25.27
2024-04-30T18:31:25.519Z,25.21
2024-04-30T18:33:53.924Z,25.14
2024-04-30T18:36:23.934Z,25.05
2024-04-30T18:38:52.271Z,24.96
2024-04-30T18:41:27.630Z,24.92
2024-04-30T18:43:59.407Z,24.89
2024-04-30T18:46:27.460Z,24.82
2024-04-30T18:48:55.477Z,24.75
2024-04-30T18:51:23.793Z,24.70
2024-04-30T18:53:51.676Z,24.64
2024-04-30T18:56:19.466Z,24.56
2024-04-30T18:58:47.982Z,24.47
2024-04-30T19:01:16.781Z,24.36
2024-04-30T19:03:47.468Z,24.23
2024-04-30T19:06:19.237Z,24.11
2024-04-30T19:08:47.075Z,24.05
2024-04-30T19:11:14.975Z,23.96
2024-04-30T19:13:44.554Z,23.87
2024-04-30T19:16:12.364Z,23.79
2024-04-30T19:18:40.365Z,23.72
2024-04-30T19:21:08.270Z,23.65
2024-04-30T19:23:36.083Z,23.61
2024-04-30T19:26:04.017Z,23.55
2024-04-30T19:28:31.765Z,23.48
2024-04-30T19:30:59.805Z,23.42
2024-04-30T19:33:27.836Z,23.31
2024-04-30T19:35:55.612Z,23.26
2024-04-30T19:38:23.362Z,23.21
2024-04-30T19:40:51.051Z,23.14
2024-04-30T19:43:18.778Z,23.08
2024-04-30T19:45:47.377Z,23.05
2024-04-30T19:48:17.912Z,22.98
2024-04-30T19:50:47.237Z,22.93
2024-04-30T19:53:14.992Z,22.86
2024-04-30T19:55:42.906Z,22.79
2024-04-30T19:58:10.632Z,22.72
2024-04-30T20:00:38.533Z,22.65
2024-04-30T20:03:07.771Z,22.59
2024-04-30T20:05:36.297Z,22.50
2024-04-30T20:08:04.184Z,22.45
2024-04-30T20:10:31.893Z,22.40
2024-04-30T20:12:59.704Z,22.36
2024-04-30T20:15:27.745Z,22.29
2024-04-30T20:17:55.474Z,22.25
2024-04-30T20:20:23.238Z,22.20
2024-04-30T20:22:51.229Z,22.13
2024-04-30T20:25:19.975Z,22.07
2024-04-30T20:27:48.671Z,22.01
2024-04-30T20:30:16.913Z,21.96
2024-04-30T20:32:46.062Z,21.94
2024-04-30T20:35:13.982Z,21.89
2024-04-30T20:37:41.649Z,21.82
2024-04-30T20:40:09.830Z,21.78
2024-04-30T20:42:37.660Z,21.73
2024-04-30T20:45:05.841Z,21.68
2024-04-30T20:47:33.600Z,21.62
2024-04-30T20:50:01.409Z,21.59
2024-04-30T20:52:29.109Z,21.57
2024-04-30T20:54:56.909Z,21.57
2024-04-30T20:57:24.634Z,21.57
2024-04-30T20:59:52.364Z,21.50
2024-04-30T21:02:20.069Z,21.40
2024-04-30T21:04:47.751Z,21.40
2024-04-30T21:07:15.450Z,21.39
2024-04-30T21:09:43.583Z,21.39
2024-04-30T21:12:11.265Z,21.35
2024-04-30T21:14:39.154Z,21.30
2024-04-30T21:17:06.839Z,21.25
2024-04-30T21:19:34.770Z,21.21
2024-04-30T21:22:03.520Z,21.14
2024-04-30T21:24:31.308Z,21.09
2024-04-30T21:26:59.162Z,21.03
2024-04-30T21:29:26.852Z,20.97
2024-04-30T21:31:55.920Z,20.93
2024-04-30T21:34:23.671Z,20.89
2024-04-30T21:36:51.437Z,20.83
2024-04-30T21:39:19.265Z,20.77
2024-04-30T21:41:46.946Z,20.74
2024-04-30T21:44:14.737Z,20.68
2024-04-30T21:46:42.783Z,20.62
2024-04-30T21:49:13.202Z,20.56
2024-04-30T21:51:44.436Z,20.51
2024-04-30T21:54:14.155Z,20.47
2024-04-30T21:56:41.847Z,20.41
2024-04-30T21:59:09.556Z,20.35
2024-04-30T22:01:37.343Z,20.26
2024-04-30T22:04:05.404Z,20.25
2024-04-30T22:06:33.356Z,20.23
2024-04-30T22:09:01.638Z,20.24
2024-04-30T22:11:29.445Z,20.20
2024-04-30T22:13:57.226Z,20.14
2024-04-30T22:16:24.932Z,20.08
2024-04-30T22:18:52.643Z,20.05
2024-04-30T22:21:22.700Z,20.00
2024-04-30T22:23:52.162Z,19.94
2024-04-30T22:26:19.893Z,19.94
2024-04-30T22:28:47.598Z,19.90
2024-04-30T22:31:15.581Z,19.88
2024-04-30T22:33:43.367Z,19.84
2024-04-30T22:36:11.132Z,19.83
2024-04-30T22:38:39.256Z,19.79
2024-04-30T22:41:07.412Z,19.77
2024-04-30T22:43:35.141Z,19.74
2024-04-30T22:46:02.850Z,19.73
2024-04-30T22:48:30.783Z,19.70
2024-04-30T22:50:58.750Z,19.65
2024-04-30T22:53:29.113Z,19.58
2024-04-30T22:55:58.776Z,19.56
2024-04-30T22:58:26.521Z,19.50
2024-04-30T23:00:54.393Z,19.45
2024-04-30T23:03:22.250Z,19.42
2024-04-30T23:05:50.189Z,19.37
2024-04-30T23:08:17.841Z,19.33
2024-04-30T23:10:45.660Z,19.32
2024-04-30T23:13:13.383Z,19.30
2024-04-30T23:15:41.230Z,19.31
2024-04-30T23:18:09.520Z,19.25
2024-04-30T23:20:37.259Z,19.23
2024-04-30T23:23:05.079Z,19.20
2024-04-30T23:25:32.775Z,19.17
2024-04-30T23:28:00.565Z,19.13
2024-04-30T23:30:28.335Z,19.10
2024-04-30T23:32:56.073Z,19.04
2024-04-30T23:35:23.856Z,19.02
2024-04-30T23:37:51.538Z,19.01
2024-04-30T23:40:19.217Z,18.97
2024-04-30T23:42:46.929Z,18.95
2024-04-30T23:45:14.799Z,18.95
2024-04-30T23:47:42.493Z,18.86
2024-04-30T23:50:10.234Z,18.81
2024-04-30T23:52:38.058Z,18.78
2024-04-30T23:55:06.286Z,18.74
2024-04-30T23:57:34.040Z,18.72
